Kensington, Minnesota
Current Conditions -  °F | °C
As of 11:53 AM on Saturday 25 Oct 2014 (Local Time) from KAXN Reporting Station
Scattered Clouds Scattered Clouds  
Wind Chill: 55°   Ceiling: Unl
Heat Index: 55°   Visibility: 10mi
Dew Point: 33°   Wind: 16mph
Humidity: 43%   Direction: 310°NW
Pressure: 30.11"   Gusts: 22mph
Location:  45.78°N, 95.7°W
Report Text: KAXN 251653Z AUTO 31014G19KT 10SM SCT120 13/01 A3011 RMK AO2 SLP200 T01280006
Loading
Personal Weather Stations






























Interactive Weather Map
Tropical Storm Tracking
New forecast layout! Learn more

10-Day Weather Forecast

Advertisements
Track Severe Weather on mobile